Terminal Aerodrome Forecast
Issued by NWS

Home | Current Version | Previous Version | Text Only | Print | Product List | Glossary On
Versions: 1 2 3 4 5 6 7 8 9 10 11 12 13 14 15 16 17 18 19 20 21 22 23 24 25
000
FTUS46 KMTR 261700
TAFSFO
TAF
KSFO 261720Z 2618/2724 31007KT P6SM FEW010
     FM262100 29017KT P6SM SKC
     FM270400 28008KT P6SM FEW010
     FM271200 27005KT P6SM BKN010
     FM271700 30008KT P6SM FEW010 SCT200=

USA.gov is the U.S. government's official web portal to all federal, state and local government web resources and services.